createdAt,value
2018-07-25T00:02:21.773Z,18.50
2018-07-25T00:04:49.962Z,17.30
2018-07-25T00:07:18.122Z,17.30
2018-07-25T00:09:46.301Z,17.67
2018-07-25T00:12:14.458Z,17.97
2018-07-25T00:14:42.630Z,18.63
2018-07-25T00:17:10.829Z,17.47
2018-07-25T00:19:38.981Z,18.20
2018-07-25T00:22:07.147Z,18.00
2018-07-25T00:24:36.710Z,18.00
2018-07-25T00:27:04.882Z,20.13
2018-07-25T00:29:33.058Z,17.90
2018-07-25T00:32:01.250Z,19.40
2018-07-25T00:34:29.422Z,19.07
2018-07-25T00:36:57.645Z,19.50
2018-07-25T00:39:25.818Z,19.67
2018-07-25T00:41:53.995Z,18.70
2018-07-25T00:44:22.217Z,18.00
2018-07-25T00:46:50.429Z,19.47
2018-07-25T00:49:18.598Z,19.27
2018-07-25T00:51:46.758Z,19.27
2018-07-25T00:54:14.964Z,19.40
2018-07-25T00:56:43.246Z,19.30
2018-07-25T00:59:11.406Z,19.50
2018-07-25T01:01:39.590Z,19.53
2018-07-25T01:04:07.794Z,20.10
2018-07-25T01:06:35.963Z,19.50
2018-07-25T01:09:06.006Z,19.77
2018-07-25T01:11:34.163Z,19.73
2018-07-25T01:14:02.347Z,20.53
2018-07-25T01:16:30.506Z,19.43
2018-07-25T01:18:58.679Z,18.73
2018-07-25T01:21:26.837Z,19.47
2018-07-25T01:23:55.030Z,19.60
2018-07-25T01:26:23.256Z,20.50
2018-07-25T01:28:51.446Z,19.20
2018-07-25T01:31:19.615Z,19.10
2018-07-25T01:33:47.774Z,20.27
2018-07-25T01:36:15.946Z,20.07
2018-07-25T01:38:44.124Z,20.27
2018-07-25T01:41:12.312Z,19.03
2018-07-25T01:43:40.475Z,19.23
2018-07-25T01:46:08.650Z,19.93
2018-07-25T01:48:36.819Z,20.17
2018-07-25T01:51:04.997Z,20.57
2018-07-25T01:53:33.170Z,20.33
2018-07-25T01:56:01.347Z,20.10
2018-07-25T01:58:29.514Z,20.30
2018-07-25T02:00:57.694Z,19.93
2018-07-25T02:03:25.950Z,20.50
2018-07-25T02:05:54.114Z,19.90
2018-07-25T02:08:22.374Z,19.97
2018-07-25T02:10:50.418Z,20.07
2018-07-25T02:13:18.591Z,21.73
2018-07-25T02:15:47.062Z,20.70
2018-07-25T02:18:15.270Z,21.13
2018-07-25T02:20:43.434Z,20.37
2018-07-25T02:23:11.606Z,19.70
2018-07-25T02:25:39.774Z,20.00
2018-07-25T02:28:07.958Z,19.03
2018-07-25T02:30:36.151Z,20.13
2018-07-25T02:33:04.335Z,21.80
2018-07-25T02:35:32.645Z,20.23
2018-07-25T02:38:00.803Z,20.30
2018-07-25T02:40:28.981Z,19.93
2018-07-25T02:42:57.134Z,20.67
2018-07-25T02:45:25.324Z,20.33
2018-07-25T02:47:53.486Z,20.83
2018-07-25T02:50:21.655Z,21.40
2018-07-25T02:52:49.806Z,21.47
2018-07-25T02:55:17.970Z,22.13
2018-07-25T02:57:46.155Z,21.10
2018-07-25T03:00:14.335Z,20.70
2018-07-25T03:02:42.483Z,21.13
2018-07-25T03:05:10.651Z,22.53
2018-07-25T03:07:38.817Z,21.20
2018-07-25T03:10:07.002Z,20.83
2018-07-25T03:12:35.179Z,21.30
2018-07-25T03:15:03.373Z,21.83
2018-07-25T03:17:31.539Z,21.70
2018-07-25T03:19:59.696Z,21.97
2018-07-25T03:22:27.859Z,21.93
2018-07-25T03:24:56.030Z,23.73
2018-07-25T03:27:24.207Z,23.23
2018-07-25T03:29:52.374Z,22.33
2018-07-25T03:32:20.539Z,23.10
2018-07-25T03:34:48.702Z,21.73
2018-07-25T03:37:16.886Z,22.33
2018-07-25T03:39:45.062Z,23.63
2018-07-25T03:42:13.247Z,23.37
2018-07-25T03:44:41.402Z,23.07
2018-07-25T03:47:09.832Z,24.07
2018-07-25T03:49:37.986Z,23.10
2018-07-25T03:52:06.200Z,24.43
2018-07-25T03:54:34.498Z,25.17
2018-07-25T03:57:02.819Z,23.27
2018-07-25T03:59:31.103Z,22.60
2018-07-25T04:01:59.279Z,21.57
2018-07-25T04:04:27.442Z,22.13
2018-07-25T04:06:55.694Z,22.80
2018-07-25T04:09:23.935Z,20.67
2018-07-25T04:11:52.102Z,21.03
2018-07-25T04:14:20.279Z,21.60
2018-07-25T04:16:48.458Z,21.17
2018-07-25T04:19:16.803Z,22.00
2018-07-25T04:21:44.983Z,22.67
2018-07-25T04:24:13.158Z,21.93
2018-07-25T04:26:41.421Z,22.80
2018-07-25T04:29:09.602Z,23.70
2018-07-25T04:31:37.847Z,23.00
2018-07-25T04:34:06.026Z,22.93
2018-07-25T04:36:34.246Z,22.87
2018-07-25T04:39:02.458Z,22.53
2018-07-25T04:41:30.681Z,25.27
2018-07-25T04:43:58.890Z,21.87
2018-07-25T04:46:27.296Z,22.80
2018-07-25T04:48:55.262Z,22.63
2018-07-25T04:51:23.602Z,21.57
2018-07-25T04:53:51.798Z,22.87
2018-07-25T04:56:20.494Z,23.60
2018-07-25T04:58:48.670Z,23.63
2018-07-25T05:01:16.857Z,23.43
2018-07-25T05:03:45.018Z,23.30
2018-07-25T05:06:13.195Z,23.07
2018-07-25T05:08:41.785Z,22.97
2018-07-25T05:11:09.947Z,21.27
2018-07-25T05:13:38.123Z,22.77
2018-07-25T05:16:06.427Z,21.87
2018-07-25T05:18:34.587Z,23.93
2018-07-25T05:21:02.794Z,22.17
2018-07-25T05:23:30.950Z,22.77
2018-07-25T05:25:59.126Z,22.63
2018-07-25T05:28:27.333Z,21.30
2018-07-25T05:30:55.590Z,20.43
2018-07-25T05:33:23.799Z,20.50
2018-07-25T05:35:52.050Z,22.10
2018-07-25T05:38:20.212Z,21.97
2018-07-25T05:40:48.450Z,23.57
2018-07-25T05:43:16.615Z,22.23
2018-07-25T05:45:44.977Z,22.33
2018-07-25T05:48:13.139Z,24.67
2018-07-25T05:50:41.390Z,22.40
2018-07-25T05:53:09.555Z,23.27
2018-07-25T05:55:37.864Z,24.97
2018-07-25T05:58:06.054Z,23.17
2018-07-25T06:00:34.246Z,22.90
2018-07-25T06:03:02.567Z,22.53
2018-07-25T06:05:30.675Z,22.60
2018-07-25T06:07:58.889Z,22.23
2018-07-25T06:10:27.050Z,22.30
2018-07-25T06:12:55.550Z,20.67
2018-07-25T06:15:23.671Z,21.77
2018-07-25T06:17:51.857Z,24.00
2018-07-25T06:20:20.123Z,25.80
2018-07-25T06:22:48.290Z,24.70
2018-07-25T06:25:16.491Z,23.60
2018-07-25T06:27:45.432Z,24.03
2018-07-25T06:30:13.663Z,24.30
2018-07-25T06:32:42.911Z,23.60
2018-07-25T06:35:12.190Z,25.33
2018-07-25T06:37:40.487Z,24.47
2018-07-25T06:40:08.831Z,26.97
2018-07-25T06:42:37.270Z,23.50
2018-07-25T06:45:06.346Z,23.70
2018-07-25T06:47:34.611Z,28.80
2018-07-25T06:50:02.828Z,25.63
2018-07-25T06:52:31.183Z,27.23
2018-07-25T06:54:59.416Z,27.10
2018-07-25T06:57:27.590Z,22.40
2018-07-25T06:59:55.890Z,25.60
2018-07-25T07:02:24.122Z,25.43
2018-07-25T07:04:52.764Z,27.50
2018-07-25T07:07:20.998Z,27.37
2018-07-25T07:09:49.647Z,25.77
2018-07-25T07:12:17.926Z,28.20
2018-07-25T07:14:46.253Z,26.97
2018-07-25T07:17:14.649Z,30.40
2018-07-25T07:19:44.054Z,31.50
2018-07-25T07:22:12.362Z,29.40
2018-07-25T07:24:40.842Z,29.23
2018-07-25T07:27:09.158Z,28.27
2018-07-25T07:29:37.474Z,26.20
2018-07-25T07:32:05.882Z,30.10
2018-07-25T07:34:34.142Z,29.37
2018-07-25T07:37:02.401Z,32.37
2018-07-25T07:39:30.795Z,25.80
2018-07-25T07:41:58.966Z,31.13
2018-07-25T07:44:27.180Z,29.07
2018-07-25T07:46:55.578Z,30.10
2018-07-25T07:49:23.871Z,32.53
2018-07-25T07:51:52.138Z,31.93
2018-07-25T07:54:20.599Z,32.90
2018-07-25T07:56:48.881Z,33.80
2018-07-25T07:59:17.040Z,28.13
2018-07-25T08:01:45.219Z,33.60
2018-07-25T08:04:13.382Z,36.00
2018-07-25T08:06:41.640Z,35.07
2018-07-25T08:09:12.077Z,35.70
2018-07-25T08:11:40.390Z,34.63
2018-07-25T08:14:08.607Z,36.10
2018-07-25T08:16:36.811Z,35.97
2018-07-25T08:19:05.133Z,29.37
2018-07-25T08:21:33.367Z,37.07
2018-07-25T08:24:01.470Z,36.40
2018-07-25T08:26:29.718Z,37.47
2018-07-25T08:28:58.154Z,34.30
2018-07-25T08:31:26.495Z,34.17
2018-07-25T08:33:54.787Z,33.27
2018-07-25T08:36:23.077Z,29.00
2018-07-25T08:38:52.270Z,34.60
2018-07-25T08:41:20.941Z,34.37
2018-07-25T08:43:49.638Z,33.33
2018-07-25T08:46:18.758Z,32.10
2018-07-25T08:48:47.075Z,31.27
2018-07-25T08:51:15.515Z,30.20
2018-07-25T08:53:43.678Z,32.83
2018-07-25T08:56:11.871Z,31.57
2018-07-25T08:58:40.055Z,28.30
2018-07-25T09:01:08.342Z,28.80
2018-07-25T09:03:36.569Z,29.53
2018-07-25T09:06:05.910Z,27.57
2018-07-25T09:08:34.079Z,29.10
2018-07-25T09:11:02.242Z,26.43
2018-07-25T09:13:30.475Z,28.20
2018-07-25T09:15:58.591Z,29.53
2018-07-25T09:18:26.758Z,30.50
2018-07-25T09:20:54.927Z,28.57
2018-07-25T09:23:23.102Z,26.30
2018-07-25T09:25:51.314Z,28.40
2018-07-25T09:28:19.510Z,28.23
2018-07-25T09:30:47.691Z,27.60
2018-07-25T09:33:15.853Z,26.73
2018-07-25T09:35:44.035Z,27.23
2018-07-25T09:38:12.207Z,26.97
2018-07-25T09:40:40.386Z,28.20
2018-07-25T09:43:08.550Z,26.40
2018-07-25T09:45:36.730Z,21.63
2018-07-25T09:48:04.955Z,20.80
2018-07-25T09:50:33.144Z,23.43
2018-07-25T09:53:01.315Z,20.90
2018-07-25T09:55:29.482Z,23.10
2018-07-25T09:57:57.656Z,20.13
2018-07-25T10:00:31.058Z,22.20
2018-07-25T10:02:59.230Z,23.03
2018-07-25T10:05:27.420Z,21.80
2018-07-25T10:07:55.586Z,19.40
2018-07-25T10:10:23.822Z,20.10
2018-07-25T10:12:52.012Z,19.47
2018-07-25T10:15:20.175Z,19.80
2018-07-25T10:17:48.392Z,18.80
2018-07-25T10:20:16.537Z,19.90
2018-07-25T10:22:44.812Z,22.57
2018-07-25T10:25:12.943Z,20.17
2018-07-25T10:27:41.118Z,18.00
2018-07-25T10:30:09.378Z,18.80
2018-07-25T10:32:37.554Z,19.30
2018-07-25T10:35:05.751Z,19.33
2018-07-25T10:37:33.911Z,18.90
2018-07-25T10:40:02.091Z,16.50
2018-07-25T10:42:30.301Z,19.10
2018-07-25T10:44:58.462Z,17.17
2018-07-25T10:47:26.636Z,17.43
2018-07-25T10:49:54.814Z,18.00
2018-07-25T10:52:23.058Z,18.07
2018-07-25T10:54:51.215Z,16.83
2018-07-25T10:57:19.389Z,16.97
2018-07-25T10:59:47.539Z,17.33
2018-07-25T11:02:15.848Z,16.83
2018-07-25T11:04:43.919Z,17.37
2018-07-25T11:07:12.090Z,17.40
2018-07-25T11:09:40.272Z,17.50
2018-07-25T11:12:08.794Z,17.73
2018-07-25T11:14:36.946Z,17.00
2018-07-25T11:17:05.183Z,14.90
2018-07-25T11:19:33.350Z,15.23
2018-07-25T11:22:01.555Z,15.73
2018-07-25T11:24:29.714Z,16.47
2018-07-25T11:26:57.918Z,15.37
2018-07-25T11:29:26.102Z,14.63
2018-07-25T11:31:54.318Z,16.23
2018-07-25T11:34:22.498Z,15.93
2018-07-25T11:36:50.931Z,14.90
2018-07-25T11:39:19.115Z,14.83
2018-07-25T11:41:47.271Z,17.10
2018-07-25T11:44:15.443Z,16.70
2018-07-25T11:46:43.670Z,17.47
2018-07-25T11:49:12.270Z,16.80
2018-07-25T11:51:40.470Z,16.33
2018-07-25T11:54:08.627Z,16.80
2018-07-25T11:56:36.824Z,15.67
2018-07-25T11:59:05.286Z,15.03
2018-07-25T12:01:33.496Z,15.50
2018-07-25T12:04:01.623Z,16.90
2018-07-25T12:06:29.812Z,15.13
2018-07-25T12:08:57.960Z,14.50
2018-07-25T12:11:26.149Z,14.70
2018-07-25T12:13:54.314Z,15.23
2018-07-25T12:16:22.563Z,16.43
2018-07-25T12:18:50.719Z,14.93
2018-07-25T12:21:18.955Z,14.73
2018-07-25T12:23:47.474Z,14.27
2018-07-25T12:26:15.640Z,14.27
2018-07-25T12:28:43.814Z,14.00
2018-07-25T12:31:11.974Z,13.70
2018-07-25T12:33:40.152Z,13.50
2018-07-25T12:36:08.895Z,14.47
2018-07-25T12:38:37.062Z,13.90
2018-07-25T12:41:05.263Z,14.00
2018-07-25T12:43:33.452Z,14.53
2018-07-25T12:46:01.611Z,15.47
2018-07-25T12:48:29.843Z,15.37
2018-07-25T12:50:57.973Z,15.30
2018-07-25T12:53:26.158Z,14.70
2018-07-25T12:55:54.334Z,14.10
2018-07-25T12:58:22.507Z,15.67
2018-07-25T13:00:50.698Z,15.60
2018-07-25T13:03:18.862Z,15.80
2018-07-25T13:05:47.018Z,15.20
2018-07-25T13:08:15.214Z,15.73
2018-07-25T13:10:43.372Z,15.80
2018-07-25T13:13:11.555Z,15.43
2018-07-25T13:15:39.718Z,15.03
2018-07-25T13:18:07.877Z,14.93
2018-07-25T13:20:36.061Z,14.23
2018-07-25T13:23:04.317Z,14.33
2018-07-25T13:25:32.431Z,15.50
2018-07-25T13:28:00.614Z,14.63
2018-07-25T13:30:28.807Z,15.50
2018-07-25T13:32:56.982Z,13.93
2018-07-25T13:35:25.174Z,14.27
2018-07-25T13:37:53.346Z,13.20
2018-07-25T13:40:21.506Z,13.37
2018-07-25T13:42:49.738Z,14.17
2018-07-25T13:45:17.921Z,14.47
2018-07-25T13:47:46.232Z,13.63
2018-07-25T13:50:14.419Z,15.40
2018-07-25T13:52:42.602Z,14.93
2018-07-25T13:55:10.774Z,15.70
2018-07-25T13:57:38.958Z,15.63
2018-07-25T14:00:09.106Z,15.87
2018-07-25T14:02:37.294Z,16.13
2018-07-25T14:05:05.494Z,14.90
2018-07-25T14:07:33.642Z,14.93
2018-07-25T14:10:01.810Z,14.97
2018-07-25T14:12:30.616Z,15.63
2018-07-25T14:14:58.787Z,16.50
2018-07-25T14:17:26.998Z,14.37
2018-07-25T14:19:55.193Z,14.70
2018-07-25T14:22:23.370Z,15.03
2018-07-25T14:24:51.550Z,14.80
2018-07-25T14:27:19.809Z,15.60
2018-07-25T14:29:47.924Z,14.10
2018-07-25T14:32:16.086Z,13.77
2018-07-25T14:34:44.263Z,13.47
2018-07-25T14:37:12.431Z,12.83
2018-07-25T14:39:40.678Z,13.20
2018-07-25T14:42:08.834Z,13.10
2018-07-25T14:44:37.079Z,14.20
2018-07-25T14:47:05.228Z,13.67
2018-07-25T14:49:33.421Z,12.90
2018-07-25T14:52:01.591Z,14.57
2018-07-25T14:54:29.782Z,13.40
2018-07-25T14:56:57.986Z,13.60
2018-07-25T14:59:26.136Z,13.07
2018-07-25T15:01:54.318Z,13.77
2018-07-25T15:04:22.510Z,13.27
2018-07-25T15:06:50.689Z,13.33
2018-07-25T15:09:18.850Z,14.17
2018-07-25T15:11:47.022Z,14.53
2018-07-25T15:14:15.186Z,14.20
2018-07-25T15:16:43.454Z,14.33
2018-07-25T15:19:11.655Z,14.10
2018-07-25T15:21:39.822Z,13.53
2018-07-25T15:24:08.017Z,13.60
2018-07-25T15:26:36.211Z,13.10
2018-07-25T15:29:04.452Z,14.17
2018-07-25T15:31:32.710Z,13.60
2018-07-25T15:34:00.894Z,13.33
2018-07-25T15:36:42.367Z,13.37
2018-07-25T15:39:26.283Z,12.50
2018-07-25T15:41:55.999Z,12.93
2018-07-25T15:44:25.295Z,12.63
2018-07-25T15:46:53.544Z,13.63
2018-07-25T15:49:22.614Z,12.33
2018-07-25T15:51:50.793Z,12.57
2018-07-25T15:54:18.973Z,12.60
2018-07-25T15:56:47.163Z,12.80
2018-07-25T15:59:15.338Z,12.20
2018-07-25T16:01:43.551Z,12.87
2018-07-25T16:04:11.710Z,13.30
2018-07-25T16:06:39.882Z,12.63
2018-07-25T16:09:09.272Z,13.27
2018-07-25T16:11:37.822Z,12.77
2018-07-25T16:14:06.030Z,12.07
2018-07-25T16:16:34.202Z,11.90
2018-07-25T16:19:02.414Z,12.43
2018-07-25T16:21:30.590Z,13.70
2018-07-25T16:23:59.114Z,11.70
2018-07-25T16:26:27.236Z,12.10
2018-07-25T16:28:55.430Z,12.70
2018-07-25T16:31:23.597Z,12.33
2018-07-25T16:33:51.787Z,12.83
2018-07-25T16:36:19.982Z,11.60
2018-07-25T16:38:48.173Z,12.40
2018-07-25T16:41:16.325Z,11.20
2018-07-25T16:43:44.503Z,12.70
2018-07-25T16:46:12.703Z,12.40
2018-07-25T16:48:40.874Z,12.53
2018-07-25T16:51:09.098Z,12.30
2018-07-25T16:53:37.267Z,12.13
2018-07-25T16:56:06.130Z,12.63
2018-07-25T16:58:34.509Z,12.10
2018-07-25T17:01:02.991Z,13.00
2018-07-25T17:03:31.503Z,13.10
2018-07-25T17:05:59.829Z,13.67
2018-07-25T17:08:28.002Z,13.20
2018-07-25T17:10:56.227Z,12.30
2018-07-25T17:13:24.626Z,12.87
2018-07-25T17:15:52.854Z,14.07
2018-07-25T17:18:22.078Z,13.27
2018-07-25T17:20:51.875Z,13.27
2018-07-25T17:23:20.215Z,12.10
2018-07-25T17:25:48.379Z,13.57
2018-07-25T17:28:16.575Z,13.90
2018-07-25T17:30:45.295Z,14.90
2018-07-25T17:33:13.780Z,13.20
2018-07-25T17:35:41.951Z,14.00
2018-07-25T17:38:10.342Z,14.63
2018-07-25T17:40:38.562Z,13.73
2018-07-25T17:43:06.966Z,14.30
2018-07-25T17:45:35.172Z,14.13
2018-07-25T17:48:03.369Z,13.53
2018-07-25T17:50:31.878Z,14.50
2018-07-25T17:53:00.127Z,14.10
2018-07-25T17:55:28.487Z,14.50
2018-07-25T17:57:56.641Z,13.60
2018-07-25T18:00:24.814Z,13.23
2018-07-25T18:02:52.978Z,14.10
2018-07-25T18:05:21.166Z,14.60
2018-07-25T18:07:49.332Z,14.40
2018-07-25T18:10:17.688Z,14.97
2018-07-25T18:12:46.079Z,14.40
2018-07-25T18:15:14.551Z,14.87
2018-07-25T18:17:43.132Z,14.20
2018-07-25T18:20:11.344Z,14.57
2018-07-25T18:22:39.535Z,14.97
2018-07-25T18:25:07.715Z,14.43
2018-07-25T18:27:35.975Z,14.53
2018-07-25T18:30:04.806Z,14.87
2018-07-25T18:32:33.383Z,14.00
2018-07-25T18:35:01.623Z,15.20
2018-07-25T18:37:29.796Z,15.70
2018-07-25T18:39:58.078Z,15.30
2018-07-25T18:42:26.397Z,16.40
2018-07-25T18:44:54.846Z,16.63
2018-07-25T18:47:23.179Z,16.10
2018-07-25T18:49:51.764Z,15.60
2018-07-25T18:52:20.092Z,17.33
2018-07-25T18:54:48.326Z,16.60
2018-07-25T18:57:16.879Z,16.63
2018-07-25T18:59:45.223Z,16.47
2018-07-25T19:02:13.547Z,16.87
2018-07-25T19:04:41.768Z,17.40
2018-07-25T19:07:11.259Z,15.77
2018-07-25T19:09:39.524Z,16.73
2018-07-25T19:12:08.250Z,16.93
2018-07-25T19:14:41.722Z,16.47
2018-07-25T19:17:09.970Z,16.07
2018-07-25T19:19:38.194Z,15.93
2018-07-25T19:22:06.934Z,17.00
2018-07-25T19:24:35.270Z,16.50
2018-07-25T19:27:04.267Z,16.50
2018-07-25T19:29:33.602Z,15.33
2018-07-25T19:32:02.327Z,15.93
2018-07-25T19:34:31.743Z,16.63
2018-07-25T19:37:00.219Z,15.43
2018-07-25T19:39:32.643Z,16.20
2018-07-25T19:42:01.003Z,15.60
2018-07-25T19:44:29.552Z,16.80
2018-07-25T19:46:57.861Z,16.43
2018-07-25T19:49:26.115Z,16.20
2018-07-25T19:51:54.358Z,15.07
2018-07-25T19:54:22.744Z,16.83
2018-07-25T19:56:52.301Z,16.40
2018-07-25T19:59:21.722Z,14.90
2018-07-25T20:01:50.611Z,14.63
2018-07-25T20:04:18.870Z,15.90
2018-07-25T20:06:47.241Z,15.20
2018-07-25T20:09:15.718Z,16.53
2018-07-25T20:11:49.973Z,15.87
2018-07-25T20:14:23.699Z,15.50
2018-07-25T20:16:51.959Z,15.50
2018-07-25T20:19:20.248Z,16.77
2018-07-25T20:21:48.554Z,15.90
2018-07-25T20:24:17.036Z,15.23
2018-07-25T20:26:45.323Z,15.73
2018-07-25T20:29:13.621Z,16.20
2018-07-25T20:31:41.987Z,16.73
2018-07-25T20:34:10.182Z,15.90
2018-07-25T20:36:38.379Z,15.93
2018-07-25T20:39:09.343Z,14.97
2018-07-25T20:41:37.541Z,15.70
2018-07-25T20:44:05.855Z,15.97
2018-07-25T20:46:34.059Z,16.27
2018-07-25T20:49:02.219Z,17.17
2018-07-25T20:51:30.403Z,15.80
2018-07-25T20:53:58.570Z,15.30
2018-07-25T20:56:26.751Z,16.40
2018-07-25T20:58:54.966Z,16.20
2018-07-25T21:01:23.134Z,14.90
2018-07-25T21:03:51.311Z,17.20
2018-07-25T21:06:19.478Z,16.47
2018-07-25T21:08:47.646Z,16.00
2018-07-25T21:11:15.829Z,16.13
2018-07-25T21:13:44.023Z,16.57
2018-07-25T21:16:12.413Z,16.73
2018-07-25T21:18:40.542Z,16.13
2018-07-25T21:21:08.773Z,16.43
2018-07-25T21:23:36.918Z,18.00
2018-07-25T21:26:05.345Z,17.13
2018-07-25T21:28:33.577Z,16.43
2018-07-25T21:31:01.735Z,17.17
2018-07-25T21:33:29.903Z,15.73
2018-07-25T21:35:58.102Z,16.73
2018-07-25T21:38:26.282Z,16.40
2018-07-25T21:40:54.466Z,16.17
2018-07-25T21:43:22.649Z,15.93
2018-07-25T21:45:50.835Z,16.80
2018-07-25T21:48:19.040Z,16.47
2018-07-25T21:50:47.202Z,16.20
2018-07-25T21:53:15.374Z,17.23
2018-07-25T21:55:43.558Z,16.43
2018-07-25T21:58:11.754Z,15.47
2018-07-25T22:00:44.099Z,16.03
2018-07-25T22:03:12.271Z,16.70
2018-07-25T22:05:41.349Z,16.87
2018-07-25T22:08:09.530Z,15.60
2018-07-25T22:10:37.754Z,15.40
2018-07-25T22:13:05.931Z,15.77
2018-07-25T22:15:34.091Z,16.10
2018-07-25T22:18:02.264Z,16.67
2018-07-25T22:20:30.440Z,16.70
2018-07-25T22:22:58.611Z,16.60
2018-07-25T22:25:26.779Z,16.77
2018-07-25T22:27:54.974Z,17.57
2018-07-25T22:30:23.200Z,16.60
2018-07-25T22:32:51.343Z,17.50
2018-07-25T22:35:19.542Z,18.17
2018-07-25T22:37:47.781Z,17.77
2018-07-25T22:40:15.920Z,17.90
2018-07-25T22:42:44.103Z,16.57
2018-07-25T22:45:12.288Z,17.60
2018-07-25T22:47:40.458Z,17.57
2018-07-25T22:50:08.632Z,18.47
2018-07-25T22:52:36.799Z,17.10
2018-07-25T22:55:05.319Z,17.97
2018-07-25T22:57:33.491Z,17.73
2018-07-25T23:00:01.684Z,17.43
2018-07-25T23:02:29.871Z,17.67
2018-07-25T23:04:58.042Z,19.23
2018-07-25T23:07:26.227Z,17.10
2018-07-25T23:09:54.402Z,18.53
2018-07-25T23:12:22.576Z,17.07
2018-07-25T23:14:50.743Z,17.60
2018-07-25T23:17:18.937Z,16.60
2018-07-25T23:19:47.109Z,17.03
2018-07-25T23:22:15.365Z,16.93
2018-07-25T23:24:43.997Z,16.83
2018-07-25T23:27:12.466Z,16.97
2018-07-25T23:29:40.633Z,17.80
2018-07-25T23:32:08.862Z,17.50
2018-07-25T23:34:37.055Z,18.10
2018-07-25T23:37:05.242Z,19.57
2018-07-25T23:39:33.385Z,18.57
2018-07-25T23:42:01.568Z,19.70
2018-07-25T23:44:29.735Z,18.33
2018-07-25T23:46:57.929Z,18.27
2018-07-25T23:49:26.099Z,18.50
2018-07-25T23:51:54.415Z,19.60
2018-07-25T23:54:22.586Z,18.23
2018-07-25T23:56:50.799Z,18.97
2018-07-25T23:59:18.970Z,20.33
